createdAt,value
2019-01-09T00:01:12.271Z,98717.30
2019-01-09T00:03:40.098Z,98721.28
2019-01-09T00:06:13.198Z,98723.33
2019-01-09T00:09:00.444Z,98723.78
2019-01-09T00:11:28.249Z,98726.97
2019-01-09T00:13:56.151Z,98725.28
2019-01-09T00:16:24.425Z,98727.06
2019-01-09T00:18:52.346Z,98730.10
2019-01-09T00:21:20.204Z,98720.01
2019-01-09T00:23:48.162Z,98722.92
2019-01-09T00:26:15.971Z,98730.55
2019-01-09T00:28:43.847Z,98728.25
2019-01-09T00:31:11.713Z,98725.97
2019-01-09T00:33:39.535Z,98721.25
2019-01-09T00:36:07.361Z,98729.94
2019-01-09T00:38:35.263Z,98724.28
2019-01-09T00:41:03.155Z,98726.23
2019-01-09T00:43:30.988Z,98726.92
2019-01-09T00:45:58.811Z,98731.77
2019-01-09T00:48:26.639Z,98733.05
2019-01-09T00:50:54.458Z,98732.50
2019-01-09T00:53:22.359Z,98734.39
2019-01-09T00:55:50.182Z,98749.80
2019-01-09T00:58:18.027Z,98750.42
2019-01-09T01:00:45.828Z,98760.84
2019-01-09T01:03:45.510Z,98767.50
2019-01-09T01:06:59.901Z,98767.79
2019-01-09T01:10:42.770Z,98771.05
2019-01-09T01:14:04.909Z,98783.59
2019-01-09T01:17:25.261Z,98788.77
2019-01-09T01:20:12.706Z,98796.88
2019-01-09T01:23:43.278Z,98800.48
2019-01-09T01:26:33.945Z,98807.84
2019-01-09T01:30:20.157Z,98814.16
2019-01-09T01:33:41.075Z,98813.03
2019-01-09T01:37:21.352Z,98817.34
2019-01-09T01:40:25.157Z,98810.88
2019-01-09T01:43:52.186Z,98808.43
2019-01-09T01:47:07.164Z,98794.06
2019-01-09T01:49:57.062Z,98795.17
2019-01-09T01:53:28.445Z,98788.64
2019-01-09T01:56:47.879Z,98784.55
2019-01-09T01:59:38.242Z,98791.87
2019-01-09T02:03:03.439Z,98789.13
2019-01-09T02:06:12.989Z,98785.78
2019-01-09T02:09:20.106Z,98778.51
2019-01-09T02:12:20.845Z,98778.19
2019-01-09T02:16:06.466Z,98779.20
2019-01-09T02:19:04.101Z,98777.77
2019-01-09T02:22:11.729Z,98765.06
2019-01-09T02:25:23.081Z,98760.86
2019-01-09T02:28:40.426Z,98764.13
2019-01-09T02:31:40.214Z,98758.09
2019-01-09T02:34:08.004Z,98759.40
2019-01-09T02:36:36.020Z,98751.38
2019-01-09T02:39:05.142Z,98750.41
2019-01-09T02:41:32.938Z,98744.87
2019-01-09T02:44:00.761Z,98745.97
2019-01-09T02:46:28.678Z,98742.72
2019-01-09T02:48:56.499Z,98744.49
2019-01-09T02:51:24.332Z,98740.08
2019-01-09T02:53:52.115Z,98736.97
2019-01-09T02:56:20.003Z,98731.62
2019-01-09T02:58:47.765Z,98724.16
2019-01-09T03:01:15.547Z,98722.69
2019-01-09T03:03:43.377Z,98731.68
2019-01-09T03:06:11.345Z,98723.38
2019-01-09T03:08:39.172Z,98723.27
2019-01-09T03:11:06.999Z,98731.26
2019-01-09T03:13:34.865Z,98717.12
2019-01-09T03:16:02.675Z,98719.23
2019-01-09T03:18:30.521Z,98722.66
2019-01-09T03:20:58.274Z,98720.86
2019-01-09T03:23:26.079Z,98716.95
2019-01-09T03:25:53.895Z,98717.46
2019-01-09T03:28:21.747Z,98712.91
2019-01-09T03:30:49.744Z,98723.95
2019-01-09T03:33:17.558Z,98738.09
2019-01-09T03:35:45.392Z,98733.72
2019-01-09T03:38:13.250Z,98736.63
2019-01-09T03:40:41.059Z,98740.88
2019-01-09T03:43:08.852Z,98744.14
2019-01-09T03:45:36.658Z,98738.27
2019-01-09T03:48:04.468Z,98749.19
2019-01-09T03:50:32.298Z,98745.94
2019-01-09T03:53:00.091Z,98744.95
2019-01-09T03:55:27.855Z,98750.00
2019-01-09T03:58:00.881Z,98747.73
2019-01-09T04:00:28.682Z,98754.75
2019-01-09T04:02:56.470Z,98739.12
2019-01-09T04:05:24.242Z,98748.59
2019-01-09T04:07:52.230Z,98747.13
2019-01-09T04:10:20.037Z,98741.44
2019-01-09T04:12:47.830Z,98751.59
2019-01-09T04:15:15.629Z,98751.43
2019-01-09T04:17:43.590Z,98758.15
2019-01-09T04:20:11.350Z,98752.95
2019-01-09T04:22:39.126Z,98749.48
2019-01-09T04:25:06.969Z,98748.63
2019-01-09T04:27:34.812Z,98754.00
2019-01-09T04:30:04.399Z,98722.27
2019-01-09T04:32:51.642Z,98752.41
2019-01-09T04:35:19.469Z,98751.63
2019-01-09T04:37:47.320Z,98750.02
2019-01-09T04:40:15.111Z,98744.50
2019-01-09T04:42:42.869Z,98742.06
2019-01-09T04:45:10.652Z,98746.16
2019-01-09T04:47:38.428Z,98749.39
2019-01-09T04:50:06.300Z,98745.28
2019-01-09T04:52:34.089Z,98746.05
2019-01-09T04:55:01.909Z,98751.42
2019-01-09T04:57:29.703Z,98746.50
2019-01-09T04:59:57.465Z,98758.89
2019-01-09T05:02:25.268Z,98719.44
2019-01-09T05:04:53.099Z,98764.98
2019-01-09T05:07:20.997Z,98762.70
2019-01-09T05:09:48.806Z,98793.92
2019-01-09T05:12:16.596Z,98784.36
2019-01-09T05:14:44.362Z,98785.23
2019-01-09T05:17:12.371Z,98782.54
2019-01-09T05:19:40.159Z,98781.47
2019-01-09T05:22:07.980Z,98775.53
2019-01-09T05:24:35.807Z,98770.41
2019-01-09T05:27:03.613Z,98766.40
2019-01-09T05:29:31.433Z,98766.04
2019-01-09T05:31:59.222Z,98764.37
2019-01-09T05:34:27.029Z,98769.47
2019-01-09T05:36:54.810Z,98765.31
2019-01-09T05:39:24.934Z,98765.55
2019-01-09T05:41:52.713Z,98765.17
2019-01-09T05:44:20.567Z,98760.55
2019-01-09T05:46:53.559Z,98767.60
2019-01-09T05:49:21.397Z,98761.98
2019-01-09T05:51:49.273Z,98763.84
2019-01-09T05:54:17.069Z,98767.46
2019-01-09T05:56:45.257Z,98769.49
2019-01-09T05:59:13.068Z,98771.48
2019-01-09T06:01:40.912Z,98771.73
2019-01-09T06:04:08.742Z,98769.19
2019-01-09T06:06:36.544Z,98773.30
2019-01-09T06:09:05.876Z,98775.92
2019-01-09T06:11:33.717Z,98775.77
2019-01-09T06:14:01.508Z,98780.35
2019-01-09T06:16:29.366Z,98788.17
2019-01-09T06:18:57.160Z,98793.23
2019-01-09T06:21:24.956Z,98788.84
2019-01-09T06:23:52.832Z,98793.67
2019-01-09T06:26:20.874Z,98800.55
2019-01-09T06:28:56.463Z,98789.85
2019-01-09T06:31:31.453Z,98793.90
2019-01-09T06:33:59.268Z,98797.33
2019-01-09T06:36:27.304Z,98793.75
2019-01-09T06:38:55.105Z,98799.63
2019-01-09T06:41:22.882Z,98800.17
2019-01-09T06:43:50.710Z,98797.57
2019-01-09T06:46:19.195Z,98797.77
2019-01-09T06:48:47.001Z,98807.22
2019-01-09T06:51:14.802Z,98798.44
2019-01-09T06:53:42.678Z,98805.58
2019-01-09T06:56:10.473Z,98809.83
2019-01-09T06:58:38.251Z,98809.23
2019-01-09T07:01:06.067Z,98812.70
2019-01-09T07:03:35.078Z,98804.72
2019-01-09T07:06:02.920Z,98807.95
2019-01-09T07:08:30.732Z,98805.83
2019-01-09T07:10:58.595Z,98815.75
2019-01-09T07:13:26.357Z,98819.20
2019-01-09T07:15:54.159Z,98824.09
2019-01-09T07:18:21.963Z,98835.67
2019-01-09T07:20:49.723Z,98831.08
2019-01-09T07:23:17.598Z,98829.41
2019-01-09T07:25:45.371Z,98834.20
2019-01-09T07:28:13.495Z,98833.67
2019-01-09T07:30:41.320Z,98839.81
2019-01-09T07:33:09.159Z,98844.83
2019-01-09T07:35:36.993Z,98847.22
2019-01-09T07:38:04.761Z,98840.30
2019-01-09T07:40:32.626Z,98849.66
2019-01-09T07:43:00.422Z,98846.87
2019-01-09T07:45:28.254Z,98843.92
2019-01-09T07:47:56.088Z,98843.14
2019-01-09T07:50:23.912Z,98862.88
2019-01-09T07:52:51.729Z,98861.91
2019-01-09T07:55:19.447Z,98857.35
2019-01-09T07:58:11.997Z,98864.02
2019-01-09T08:00:39.762Z,98869.78
2019-01-09T08:03:07.536Z,98868.22
2019-01-09T08:05:35.297Z,98868.11
2019-01-09T08:08:03.116Z,98870.12
2019-01-09T08:10:30.893Z,98872.12
2019-01-09T08:12:58.657Z,98871.36
2019-01-09T08:15:26.520Z,98881.16
2019-01-09T08:17:54.263Z,98879.70
2019-01-09T08:20:22.118Z,98875.31
2019-01-09T08:22:49.893Z,98882.63
2019-01-09T08:25:17.749Z,98883.78
2019-01-09T08:27:45.856Z,98881.34
2019-01-09T08:30:13.653Z,98888.72
2019-01-09T08:32:41.484Z,98887.61
2019-01-09T08:35:09.288Z,98892.00
2019-01-09T08:37:37.249Z,98890.07
2019-01-09T08:40:07.291Z,98893.84
2019-01-09T08:42:35.058Z,98899.91
2019-01-09T08:45:02.951Z,98894.07
2019-01-09T08:47:30.740Z,98891.14
2019-01-09T08:49:58.563Z,98895.55
2019-01-09T08:52:26.373Z,98906.30
2019-01-09T08:54:54.185Z,98897.83
2019-01-09T08:57:22.085Z,98899.28
2019-01-09T08:59:49.900Z,98910.36
2019-01-09T09:02:17.736Z,98910.66
2019-01-09T09:04:45.504Z,98910.72
2019-01-09T09:07:13.472Z,98904.06
2019-01-09T09:09:41.699Z,98903.27
2019-01-09T09:12:09.456Z,98911.63
2019-01-09T09:14:37.225Z,98919.45
2019-01-09T09:17:05.073Z,98920.61
2019-01-09T09:19:32.855Z,98913.27
2019-01-09T09:22:00.717Z,98921.08
2019-01-09T09:24:28.474Z,98926.34
2019-01-09T09:26:56.270Z,98921.81
2019-01-09T09:29:24.103Z,98929.19
2019-01-09T09:31:51.906Z,98932.59
2019-01-09T09:34:19.733Z,98940.73
2019-01-09T09:36:47.542Z,98942.36
2019-01-09T09:39:15.351Z,98954.73
2019-01-09T09:41:43.104Z,98954.88
2019-01-09T09:44:10.909Z,98960.41
2019-01-09T09:46:43.850Z,98952.97
2019-01-09T09:49:11.673Z,98963.06
2019-01-09T09:51:39.458Z,98971.06
2019-01-09T09:54:07.285Z,98978.42
2019-01-09T09:56:35.184Z,98974.43
2019-01-09T09:59:03.047Z,98975.46
2019-01-09T10:01:30.851Z,98969.77
2019-01-09T10:03:58.609Z,98966.41
2019-01-09T10:06:26.598Z,98978.55
2019-01-09T10:08:54.369Z,98975.72
2019-01-09T10:11:22.200Z,98965.55
2019-01-09T10:13:50.039Z,98968.18
2019-01-09T10:16:17.952Z,98966.08
2019-01-09T10:18:45.783Z,98961.06
2019-01-09T10:21:13.632Z,98962.09
2019-01-09T10:23:41.467Z,98970.64
2019-01-09T10:26:14.264Z,98976.93
2019-01-09T10:28:42.061Z,98974.91
2019-01-09T10:31:09.884Z,98963.70
2019-01-09T10:33:37.626Z,98961.94
2019-01-09T10:36:05.541Z,98958.82
2019-01-09T10:38:37.964Z,98956.57
2019-01-09T10:41:03.079Z,98950.39
2019-01-09T10:43:30.878Z,98950.30
2019-01-09T10:45:58.675Z,98947.86
2019-01-09T10:48:26.462Z,98943.59
2019-01-09T10:50:54.324Z,98934.27
2019-01-09T10:53:22.126Z,98950.09
2019-01-09T10:55:49.901Z,98953.05
2019-01-09T10:58:22.898Z,98958.48
2019-01-09T11:00:50.791Z,98953.64
2019-01-09T11:03:18.585Z,98959.21
2019-01-09T11:05:46.410Z,98949.76
2019-01-09T11:08:14.190Z,98947.31
2019-01-09T11:10:42.005Z,98942.39
2019-01-09T11:13:09.782Z,98937.66
2019-01-09T11:15:57.070Z,98937.31
2019-01-09T11:18:24.851Z,98935.30
2019-01-09T11:20:52.652Z,98934.81
2019-01-09T11:23:20.410Z,98933.66
2019-01-09T11:25:48.254Z,98946.70
2019-01-09T11:28:21.228Z,98943.91
2019-01-09T11:30:49.039Z,98941.95
2019-01-09T11:33:16.843Z,98945.86
2019-01-09T11:35:44.612Z,98952.69
2019-01-09T11:38:12.579Z,98942.89
2019-01-09T11:40:40.384Z,98956.33
2019-01-09T11:43:08.186Z,98950.44
2019-01-09T11:45:35.997Z,98946.20
2019-01-09T11:48:03.840Z,98944.30
2019-01-09T11:50:31.735Z,98947.23
2019-01-09T11:52:59.475Z,98945.43
2019-01-09T11:55:27.313Z,98947.70
2019-01-09T11:57:55.276Z,98947.98
2019-01-09T12:00:26.146Z,98950.70
2019-01-09T12:02:53.931Z,98951.69
2019-01-09T12:05:21.802Z,98948.47
2019-01-09T12:07:49.560Z,98948.63
2019-01-09T12:10:20.029Z,98958.23
2019-01-09T12:12:48.064Z,98956.03
2019-01-09T12:15:16.795Z,98964.34
2019-01-09T12:17:44.603Z,98965.49
2019-01-09T12:20:14.588Z,98963.47
2019-01-09T12:22:42.607Z,98959.83
2019-01-09T12:25:10.928Z,98968.86
2019-01-09T12:27:44.423Z,98970.29
2019-01-09T12:30:25.917Z,98966.95
2019-01-09T12:32:54.130Z,98981.59
2019-01-09T12:35:22.299Z,98976.19
2019-01-09T12:37:50.310Z,98979.47
2019-01-09T12:40:18.201Z,98971.16
2019-01-09T12:42:46.038Z,98984.47
2019-01-09T12:45:14.500Z,98986.81
2019-01-09T12:47:43.690Z,98980.05
2019-01-09T12:50:15.783Z,98995.66
2019-01-09T12:52:43.760Z,98989.06
2019-01-09T12:55:11.547Z,99000.44
2019-01-09T12:57:39.339Z,99002.84
2019-01-09T13:00:22.823Z,99003.97
2019-01-09T13:02:51.172Z,99007.55
2019-01-09T13:05:19.639Z,99009.34
2019-01-09T13:07:57.812Z,99011.92
2019-01-09T13:10:27.978Z,99013.39
2019-01-09T13:12:56.255Z,99009.03
2019-01-09T13:15:24.003Z,99022.23
2019-01-09T13:17:51.802Z,99012.49
2019-01-09T13:20:19.602Z,99016.75
2019-01-09T13:22:47.504Z,99014.81
2019-01-09T13:25:16.045Z,99018.27
2019-01-09T13:27:44.581Z,99018.19
2019-01-09T13:30:16.254Z,99011.02
2019-01-09T13:32:44.318Z,99010.97
2019-01-09T13:35:12.257Z,99005.05
2019-01-09T13:37:40.272Z,98995.09
2019-01-09T13:40:14.778Z,99005.84
2019-01-09T13:42:42.984Z,99010.97
2019-01-09T13:45:14.723Z,99017.23
2019-01-09T13:47:43.028Z,99019.88
2019-01-09T13:50:11.521Z,99021.20
2019-01-09T13:52:40.931Z,99032.65
2019-01-09T13:55:10.795Z,99027.38
2019-01-09T13:57:38.724Z,99030.32
2019-01-09T14:00:10.959Z,99026.83
2019-01-09T14:02:38.817Z,99031.00
2019-01-09T14:05:07.189Z,99028.36
2019-01-09T14:07:40.482Z,99025.48
2019-01-09T14:10:11.670Z,99032.41
2019-01-09T14:12:39.607Z,99034.88
2019-01-09T14:15:10.589Z,99048.84
2019-01-09T14:17:38.409Z,99050.39
2019-01-09T14:20:09.107Z,99054.48
2019-01-09T14:22:36.979Z,99059.79
2019-01-09T14:25:06.424Z,99064.67
2019-01-09T14:27:34.693Z,99060.38
2019-01-09T14:30:05.868Z,99061.91
2019-01-09T14:32:33.756Z,99071.64
2019-01-09T14:35:01.714Z,99077.97
2019-01-09T14:37:29.606Z,99078.02
2019-01-09T14:39:57.678Z,99081.04
2019-01-09T14:42:25.546Z,99087.96
2019-01-09T14:44:53.369Z,99085.52
2019-01-09T14:47:21.229Z,99091.21
2019-01-09T14:49:50.873Z,99092.32
2019-01-09T14:52:18.714Z,99094.75
2019-01-09T14:54:46.502Z,99096.42
2019-01-09T14:57:14.301Z,99101.28
2019-01-09T14:59:42.135Z,99099.08
2019-01-09T15:02:09.968Z,99100.30
2019-01-09T15:04:37.838Z,99105.52
2019-01-09T15:07:10.816Z,99102.02
2019-01-09T15:09:38.640Z,99103.77
2019-01-09T15:12:06.417Z,99100.89
2019-01-09T15:14:34.349Z,99109.53
2019-01-09T15:17:02.203Z,99107.59
2019-01-09T15:19:30.130Z,99111.25
2019-01-09T15:22:00.870Z,99111.57
2019-01-09T15:24:42.347Z,99108.80
2019-01-09T15:27:15.670Z,99114.41
2019-01-09T15:29:47.099Z,99119.38
2019-01-09T15:32:16.514Z,99121.09
2019-01-09T15:34:44.503Z,99124.51
2019-01-09T15:37:15.448Z,99126.58
2019-01-09T15:39:45.192Z,99132.00
2019-01-09T15:42:12.991Z,99124.50
2019-01-09T15:45:00.389Z,99132.00
2019-01-09T15:47:29.715Z,99142.05
2019-01-09T15:50:00.567Z,99139.87
2019-01-09T15:52:30.505Z,99143.80
2019-01-09T15:55:01.140Z,99143.16
2019-01-09T15:57:33.994Z,99153.19
2019-01-09T16:00:07.217Z,99148.34
2019-01-09T16:02:35.168Z,99154.71
2019-01-09T16:05:03.725Z,99150.00
2019-01-09T16:07:39.035Z,99153.55
2019-01-09T16:10:14.671Z,99158.77
2019-01-09T16:12:41.978Z,99160.85
2019-01-09T16:15:18.155Z,99158.35
2019-01-09T16:17:51.191Z,99170.51
2019-01-09T16:20:20.739Z,99164.80
2019-01-09T16:22:48.712Z,99171.27
2019-01-09T16:25:17.410Z,99173.17
2019-01-09T16:27:52.667Z,99176.28
2019-01-09T16:31:31.787Z,99176.91
2019-01-09T16:33:59.852Z,99178.34
2019-01-09T16:36:29.694Z,99180.23
2019-01-09T16:38:57.532Z,99177.34
2019-01-09T16:41:25.349Z,99182.12
2019-01-09T16:43:53.421Z,99186.70
2019-01-09T16:46:21.228Z,99185.08
2019-01-09T16:48:49.062Z,99182.31
2019-01-09T16:51:16.873Z,99184.44
2019-01-09T16:53:44.685Z,99188.61
2019-01-09T16:56:12.684Z,99190.00
2019-01-09T16:58:40.480Z,99183.14
2019-01-09T17:01:08.305Z,99191.84
2019-01-09T17:03:36.150Z,99193.59
2019-01-09T17:06:04.570Z,99195.06
2019-01-09T17:08:32.347Z,99194.08
2019-01-09T17:11:00.220Z,99205.84
2019-01-09T17:13:28.450Z,99205.88
2019-01-09T17:15:56.285Z,99207.66
2019-01-09T17:18:24.121Z,99219.95
2019-01-09T17:20:51.944Z,99217.16
2019-01-09T17:23:19.796Z,99217.57
2019-01-09T17:25:47.621Z,99215.78
2019-01-09T17:28:15.764Z,99222.45
2019-01-09T17:30:43.502Z,99218.34
2019-01-09T17:33:11.272Z,99213.98
2019-01-09T17:35:39.112Z,99223.23
2019-01-09T17:38:06.940Z,99218.00
2019-01-09T17:40:41.006Z,99224.22
2019-01-09T17:43:04.867Z,99224.69
2019-01-09T17:45:32.656Z,99227.82
2019-01-09T17:48:00.511Z,99226.56
2019-01-09T17:50:33.664Z,99226.78
2019-01-09T17:53:01.510Z,99231.12
2019-01-09T17:55:29.343Z,99223.63
2019-01-09T17:57:57.271Z,99238.14
2019-01-09T18:00:29.288Z,99239.58
2019-01-09T18:02:57.105Z,99240.19
2019-01-09T18:05:24.913Z,99247.68
2019-01-09T18:07:57.812Z,99250.94
2019-01-09T18:10:25.899Z,99252.11
2019-01-09T18:12:53.799Z,99258.80
2019-01-09T18:15:23.268Z,99257.50
2019-01-09T18:17:56.246Z,99261.64
2019-01-09T18:20:24.084Z,99261.78
2019-01-09T18:22:51.891Z,99262.86
2019-01-09T18:25:22.613Z,99267.64
2019-01-09T18:27:56.150Z,99269.11
2019-01-09T18:30:37.926Z,99275.18
2019-01-09T18:33:20.680Z,99274.10
2019-01-09T18:36:30.763Z,99275.83
2019-01-09T18:39:43.351Z,99281.86
2019-01-09T18:43:08.840Z,99285.46
2019-01-09T18:46:11.946Z,99289.74
2019-01-09T18:49:31.116Z,99293.88
2019-01-09T18:53:09.073Z,99305.78
2019-01-09T18:55:39.559Z,99300.02
2019-01-09T18:58:09.840Z,99300.78
2019-01-09T19:00:40.097Z,99304.46
2019-01-09T19:03:11.750Z,99303.30
2019-01-09T19:05:44.573Z,99308.02
2019-01-09T19:08:51.787Z,99303.91
2019-01-09T19:11:19.941Z,99308.95
2019-01-09T19:14:02.176Z,99305.66
2019-01-09T19:16:39.352Z,99315.97
2019-01-09T19:19:18.027Z,99318.48
2019-01-09T19:21:48.367Z,99323.73
2019-01-09T19:24:16.226Z,99327.01
2019-01-09T19:26:49.768Z,99333.22
2019-01-09T19:29:22.831Z,99331.03
2019-01-09T19:31:52.641Z,99336.45
2019-01-09T19:34:20.455Z,99339.39
2019-01-09T19:36:48.403Z,99343.98
2019-01-09T19:39:16.174Z,99308.25
2019-01-09T19:41:51.879Z,99332.54
2019-01-09T19:44:22.680Z,99350.33
2019-01-09T19:46:50.526Z,99355.25
2019-01-09T19:49:18.368Z,99355.91
2019-01-09T19:51:46.316Z,99356.19
2019-01-09T19:54:14.188Z,99358.62
2019-01-09T19:56:43.997Z,99359.56
2019-01-09T19:59:11.852Z,99361.55
2019-01-09T20:01:39.726Z,99362.08
2019-01-09T20:04:07.678Z,99362.75
2019-01-09T20:06:35.501Z,99366.96
2019-01-09T20:09:07.458Z,99368.26
2019-01-09T20:11:35.377Z,99372.64
2019-01-09T20:14:03.415Z,99371.66
2019-01-09T20:16:31.478Z,99377.03
2019-01-09T20:18:59.339Z,99376.66
2019-01-09T20:21:27.158Z,99374.06
2019-01-09T20:23:55.144Z,99383.63
2019-01-09T20:26:23.307Z,99389.72
2019-01-09T20:28:51.130Z,99386.80
2019-01-09T20:31:19.118Z,99391.49
2019-01-09T20:33:46.944Z,99393.41
2019-01-09T20:36:14.753Z,99390.14
2019-01-09T20:38:42.684Z,99393.71
2019-01-09T20:41:10.709Z,99398.34
2019-01-09T20:43:38.697Z,99393.95
2019-01-09T20:46:06.507Z,99398.85
2019-01-09T20:48:34.570Z,99404.88
2019-01-09T20:51:02.891Z,99403.56
2019-01-09T20:53:50.250Z,99412.20
2019-01-09T20:56:18.103Z,99409.78
2019-01-09T20:58:46.025Z,99416.49
2019-01-09T21:01:13.944Z,99418.84
2019-01-09T21:03:41.849Z,99424.27
2019-01-09T21:06:12.376Z,99426.41
2019-01-09T21:08:40.258Z,99427.95
2019-01-09T21:11:08.202Z,99430.66
2019-01-09T21:13:36.022Z,99427.48
2019-01-09T21:16:08.227Z,99432.52
2019-01-09T21:18:36.024Z,99431.98
2019-01-09T21:21:03.869Z,99436.96
2019-01-09T21:23:31.700Z,99436.97
2019-01-09T21:25:59.670Z,99436.91
2019-01-09T21:28:30.478Z,99442.34
2019-01-09T21:31:00.159Z,99446.45
2019-01-09T21:33:42.988Z,99439.91
2019-01-09T21:36:14.143Z,99439.91
2019-01-09T21:39:01.469Z,99443.80
2019-01-09T21:41:29.281Z,99446.19
2019-01-09T21:43:57.114Z,99448.11
2019-01-09T21:46:24.936Z,99451.57
2019-01-09T21:48:52.885Z,99455.13
2019-01-09T21:51:20.714Z,99454.68
2019-01-09T21:53:48.616Z,99459.23
2019-01-09T21:56:16.522Z,99463.94
2019-01-09T21:58:44.396Z,99460.73
2019-01-09T22:01:12.156Z,99466.16
2019-01-09T22:03:39.980Z,99464.94
2019-01-09T22:06:08.048Z,99463.41
2019-01-09T22:08:35.911Z,99465.70
2019-01-09T22:11:03.740Z,99475.17
2019-01-09T22:13:31.858Z,99472.45
2019-01-09T22:15:59.696Z,99472.65
2019-01-09T22:18:27.546Z,99463.47
2019-01-09T22:20:55.376Z,99470.17
2019-01-09T22:23:23.763Z,99466.30
2019-01-09T22:25:51.708Z,99471.48
2019-01-09T22:28:20.365Z,99487.42
2019-01-09T22:30:48.185Z,99486.66
2019-01-09T22:33:15.955Z,99491.94
2019-01-09T22:35:43.792Z,99490.36
2019-01-09T22:38:26.751Z,99484.85
2019-01-09T22:40:54.579Z,99489.84
2019-01-09T22:43:22.397Z,99493.40
2019-01-09T22:45:50.178Z,99491.02
2019-01-09T22:48:23.370Z,99492.12
2019-01-09T22:50:51.128Z,99492.16
2019-01-09T22:53:19.017Z,99499.09
2019-01-09T22:55:46.772Z,99493.34
2019-01-09T22:58:14.664Z,99495.83
2019-01-09T23:01:01.290Z,99503.58
2019-01-09T23:03:30.057Z,99509.17
2019-01-09T23:05:57.969Z,99517.64
2019-01-09T23:08:25.791Z,99519.61
2019-01-09T23:10:54.966Z,99520.15
2019-01-09T23:13:23.335Z,99524.03
2019-01-09T23:15:51.165Z,99521.27
2019-01-09T23:18:18.940Z,99521.47
2019-01-09T23:20:46.796Z,99523.44
2019-01-09T23:23:15.279Z,99527.05
2019-01-09T23:25:43.173Z,99527.55
2019-01-09T23:28:11.044Z,99533.30
2019-01-09T23:30:40.164Z,99534.00
2019-01-09T23:33:07.966Z,99539.87
2019-01-09T23:35:35.762Z,99536.02
2019-01-09T23:38:03.575Z,99536.81
2019-01-09T23:40:31.396Z,99535.69
2019-01-09T23:42:59.259Z,99537.03
2019-01-09T23:45:27.102Z,99535.87
2019-01-09T23:47:55.149Z,99542.25
2019-01-09T23:50:22.948Z,99545.33
2019-01-09T23:52:50.802Z,99548.90
2019-01-09T23:55:18.565Z,99550.62
2019-01-09T23:57:51.472Z,99553.50
